sensor_id;sensor_type;location;lat;lon;timestamp;pressure;altitude;pressure_sealevel;temperature;humidity
27294;BME280;14785;52.556;13.430;2022-08-03T00:00:39;100871.78;;;25.10;100.00
27294;BME280;14785;52.556;13.430;2022-08-03T00:03:05;100866.41;;;24.99;100.00
27294;BME280;14785;52.556;13.430;2022-08-03T00:05:31;100866.19;;;24.72;100.00
27294;BME280;14785;52.556;13.430;2022-08-03T00:07:59;100863.75;;;24.87;100.00
27294;BME280;14785;52.556;13.430;2022-08-03T00:10:25;100861.66;;;24.78;100.00
27294;BME280;14785;52.556;13.430;2022-08-03T00:12:51;100862.94;;;24.87;100.00
27294;BME280;14785;52.556;13.430;2022-08-03T00:15:17;100859.97;;;24.88;100.00
27294;BME280;14785;52.556;13.430;2022-08-03T00:17:43;100860.13;;;24.98;100.00
27294;BME280;14785;52.556;13.430;2022-08-03T00:20:09;100856.00;;;24.79;100.00
27294;BME280;14785;52.556;13.430;2022-08-03T00:22:34;100855.78;;;24.97;100.00
27294;BME280;14785;52.556;13.430;2022-08-03T00:25:00;100860.50;;;25.18;100.00
27294;BME280;14785;52.556;13.430;2022-08-03T00:27:25;100852.13;;;25.36;100.00
27294;BME280;14785;52.556;13.430;2022-08-03T00:29:51;100863.50;;;25.33;100.00
27294;BME280;14785;52.556;13.430;2022-08-03T00:32:16;100852.44;;;25.40;100.00
27294;BME280;14785;52.556;13.430;2022-08-03T00:34:41;100855.56;;;25.48;100.00
27294;BME280;14785;52.556;13.430;2022-08-03T00:37:07;100849.47;;;25.41;100.00
27294;BME280;14785;52.556;13.430;2022-08-03T00:39:32;100844.69;;;25.48;100.00
27294;BME280;14785;52.556;13.430;2022-08-03T00:42:01;100839.22;;;25.48;100.00
27294;BME280;14785;52.556;13.430;2022-08-03T00:44:26;100836.41;;;25.43;100.00
27294;BME280;14785;52.556;13.430;2022-08-03T00:46:52;100838.66;;;25.46;100.00
27294;BME280;14785;52.556;13.430;2022-08-03T00:49:17;100847.41;;;25.48;100.00
27294;BME280;14785;52.556;13.430;2022-08-03T00:51:43;100838.16;;;25.49;100.00
27294;BME280;14785;52.556;13.430;2022-08-03T00:54:09;100832.66;;;25.44;100.00
27294;BME280;14785;52.556;13.430;2022-08-03T00:56:34;100834.13;;;25.52;100.00
27294;BME280;14785;52.556;13.430;2022-08-03T00:59:02;100836.91;;;25.40;100.00
27294;BME280;14785;52.556;13.430;2022-08-03T01:01:28;100838.50;;;25.36;100.00
27294;BME280;14785;52.556;13.430;2022-08-03T01:03:53;100837.25;;;25.44;100.00
27294;BME280;14785;52.556;13.430;2022-08-03T01:06:33;100837.56;;;25.31;100.00
27294;BME280;14785;52.556;13.430;2022-08-03T01:09:23;100835.44;;;25.33;100.00
27294;BME280;14785;52.556;13.430;2022-08-03T01:12:21;100830.19;;;25.31;100.00
27294;BME280;14785;52.556;13.430;2022-08-03T01:14:51;100824.03;;;25.19;100.00
27294;BME280;14785;52.556;13.430;2022-08-03T01:17:56;100816.09;;;25.18;100.00
27294;BME280;14785;52.556;13.430;2022-08-03T01:20:26;100818.56;;;25.03;100.00
27294;BME280;14785;52.556;13.430;2022-08-03T01:23:23;100815.03;;;25.02;100.00
27294;BME280;14785;52.556;13.430;2022-08-03T01:31:09;100815.94;;;24.91;100.00
27294;BME280;14785;52.556;13.430;2022-08-03T01:33:43;100810.47;;;24.91;100.00
27294;BME280;14785;52.556;13.430;2022-08-03T01:36:17;100810.84;;;24.95;100.00
27294;BME280;14785;52.556;13.430;2022-08-03T01:38:48;100809.34;;;24.87;100.00
27294;BME280;14785;52.556;13.430;2022-08-03T01:41:20;100805.44;;;24.83;100.00
27294;BME280;14785;52.556;13.430;2022-08-03T01:43:48;100812.56;;;24.56;100.00
27294;BME280;14785;52.556;13.430;2022-08-03T01:46:16;100811.09;;;24.65;100.00
27294;BME280;14785;52.556;13.430;2022-08-03T01:48:43;100807.00;;;24.79;100.00
27294;BME280;14785;52.556;13.430;2022-08-03T01:51:10;100803.91;;;24.87;100.00
27294;BME280;14785;52.556;13.430;2022-08-03T01:53:37;100812.44;;;24.79;100.00
27294;BME280;14785;52.556;13.430;2022-08-03T01:56:07;100809.13;;;24.77;100.00
27294;BME280;14785;52.556;13.430;2022-08-03T01:58:35;100807.78;;;24.63;100.00
27294;BME280;14785;52.556;13.430;2022-08-03T02:01:02;100808.28;;;24.60;100.00
27294;BME280;14785;52.556;13.430;2022-08-03T02:03:28;100811.31;;;24.75;100.00
27294;BME280;14785;52.556;13.430;2022-08-03T02:05:55;100810.13;;;24.71;100.00
27294;BME280;14785;52.556;13.430;2022-08-03T02:08:23;100797.63;;;25.03;100.00
27294;BME280;14785;52.556;13.430;2022-08-03T02:10:50;100795.66;;;25.15;100.00
27294;BME280;14785;52.556;13.430;2022-08-03T02:13:18;100800.59;;;25.18;100.00
27294;BME280;14785;52.556;13.430;2022-08-03T02:15:45;100803.22;;;25.13;100.00
27294;BME280;14785;52.556;13.430;2022-08-03T02:18:11;100794.66;;;25.05;100.00
27294;BME280;14785;52.556;13.430;2022-08-03T02:20:38;100798.47;;;25.04;100.00
27294;BME280;14785;52.556;13.430;2022-08-03T02:23:04;100800.44;;;25.08;100.00
27294;BME280;14785;52.556;13.430;2022-08-03T02:25:32;100800.44;;;25.25;100.00
27294;BME280;14785;52.556;13.430;2022-08-03T02:28:05;100805.69;;;25.31;100.00
27294;BME280;14785;52.556;13.430;2022-08-03T02:30:35;100802.91;;;25.26;100.00
27294;BME280;14785;52.556;13.430;2022-08-03T02:33:04;100799.44;;;25.14;100.00
27294;BME280;14785;52.556;13.430;2022-08-03T02:35:31;100801.94;;;25.16;100.00
27294;BME280;14785;52.556;13.430;2022-08-03T02:38:03;100811.81;;;25.05;100.00
27294;BME280;14785;52.556;13.430;2022-08-03T02:40:30;100799.50;;;25.19;100.00
27294;BME280;14785;52.556;13.430;2022-08-03T02:42:59;100800.09;;;25.21;100.00
27294;BME280;14785;52.556;13.430;2022-08-03T02:45:27;100795.50;;;25.22;100.00
27294;BME280;14785;52.556;13.430;2022-08-03T02:47:57;100796.28;;;25.22;100.00
27294;BME280;14785;52.556;13.430;2022-08-03T02:50:25;100803.41;;;25.23;100.00
27294;BME280;14785;52.556;13.430;2022-08-03T02:52:51;100807.41;;;25.32;100.00
27294;BME280;14785;52.556;13.430;2022-08-03T02:55:19;100805.69;;;25.31;100.00
27294;BME280;14785;52.556;13.430;2022-08-03T02:57:46;100806.53;;;25.15;100.00
27294;BME280;14785;52.556;13.430;2022-08-03T03:00:11;100809.84;;;25.17;100.00
27294;BME280;14785;52.556;13.430;2022-08-03T03:02:39;100807.28;;;24.94;100.00
27294;BME280;14785;52.556;13.430;2022-08-03T03:05:05;100810.31;;;24.81;100.00
27294;BME280;14785;52.556;13.430;2022-08-03T03:07:33;100812.88;;;24.60;100.00
27294;BME280;14785;52.556;13.430;2022-08-03T03:09:59;100813.81;;;24.65;100.00
27294;BME280;14785;52.556;13.430;2022-08-03T03:14:51;100810.88;;;24.55;100.00
27294;BME280;14785;52.556;13.430;2022-08-03T03:17:17;100808.28;;;24.60;100.00
27294;BME280;14785;52.556;13.430;2022-08-03T03:19:44;100816.81;;;24.52;100.00
27294;BME280;14785;52.556;13.430;2022-08-03T03:22:11;100818.56;;;24.58;100.00
27294;BME280;14785;52.556;13.430;2022-08-03T03:24:38;100807.41;;;24.43;100.00
27294;BME280;14785;52.556;13.430;2022-08-03T03:27:06;100806.84;;;24.41;100.00
27294;BME280;14785;52.556;13.430;2022-08-03T03:29:32;100808.78;;;24.29;100.00
27294;BME280;14785;52.556;13.430;2022-08-03T03:31:59;100803.47;;;24.22;100.00
27294;BME280;14785;52.556;13.430;2022-08-03T03:34:24;100815.25;;;24.28;100.00
27294;BME280;14785;52.556;13.430;2022-08-03T03:36:50;100809.94;;;24.33;100.00
27294;BME280;14785;52.556;13.430;2022-08-03T03:39:15;100806.41;;;24.49;100.00
27294;BME280;14785;52.556;13.430;2022-08-03T03:41:41;100808.63;;;24.64;100.00
27294;BME280;14785;52.556;13.430;2022-08-03T03:44:07;100810.38;;;24.70;100.00
27294;BME280;14785;52.556;13.430;2022-08-03T03:46:32;100814.59;;;24.77;100.00
27294;BME280;14785;52.556;13.430;2022-08-03T03:48:58;100808.34;;;24.77;100.00
27294;BME280;14785;52.556;13.430;2022-08-03T03:51:23;100807.50;;;24.76;100.00
27294;BME280;14785;52.556;13.430;2022-08-03T03:53:56;100805.16;;;24.68;100.00
27294;BME280;14785;52.556;13.430;2022-08-03T03:56:21;100805.16;;;24.68;100.00
27294;BME280;14785;52.556;13.430;2022-08-03T03:58:47;100798.09;;;24.67;100.00
27294;BME280;14785;52.556;13.430;2022-08-03T04:01:12;100797.50;;;24.65;100.00
27294;BME280;14785;52.556;13.430;2022-08-03T04:03:38;100801.25;;;24.64;100.00
27294;BME280;14785;52.556;13.430;2022-08-03T04:06:03;100805.44;;;24.55;100.00
27294;BME280;14785;52.556;13.430;2022-08-03T04:08:47;100801.72;;;24.73;100.00
27294;BME280;14785;52.556;13.430;2022-08-03T04:11:40;100805.16;;;24.68;100.00
27294;BME280;14785;52.556;13.430;2022-08-03T04:14:26;100805.78;;;24.59;100.00
27294;BME280;14785;52.556;13.430;2022-08-03T04:16:58;100805.94;;;24.52;100.00
27294;BME280;14785;52.556;13.430;2022-08-03T04:19:35;100803.56;;;24.27;100.00
27294;BME280;14785;52.556;13.430;2022-08-03T04:22:06;100806.66;;;24.48;100.00
27294;BME280;14785;52.556;13.430;2022-08-03T04:24:39;100803.63;;;24.44;100.00
27294;BME280;14785;52.556;13.430;2022-08-03T04:27:07;100807.88;;;24.40;100.00
27294;BME280;14785;52.556;13.430;2022-08-03T04:29:34;100811.69;;;24.39;100.00
27294;BME280;14785;52.556;13.430;2022-08-03T04:32:01;100815.47;;;24.38;100.00
27294;BME280;14785;52.556;13.430;2022-08-03T04:34:27;100820.56;;;24.34;100.00
27294;BME280;14785;52.556;13.430;2022-08-03T04:36:58;100822.22;;;24.35;100.00
27294;BME280;14785;52.556;13.430;2022-08-03T04:39:26;100817.13;;;24.39;100.00
27294;BME280;14785;52.556;13.430;2022-08-03T04:41:57;100811.75;;;24.16;100.00
27294;BME280;14785;52.556;13.430;2022-08-03T04:44:25;100815.19;;;24.23;100.00
27294;BME280;14785;52.556;13.430;2022-08-03T04:46:51;100820.97;;;24.15;100.00
27294;BME280;14785;52.556;13.430;2022-08-03T04:49:19;100823.09;;;24.13;100.00
27294;BME280;14785;52.556;13.430;2022-08-03T04:51:46;100821.00;;;23.92;100.00
27294;BME280;14785;52.556;13.430;2022-08-03T04:54:13;100811.91;;;24.09;100.00
27294;BME280;14785;52.556;13.430;2022-08-03T04:56:39;100822.41;;;24.06;100.00
27294;BME280;14785;52.556;13.430;2022-08-03T04:59:06;100824.06;;;24.07;100.00
27294;BME280;14785;52.556;13.430;2022-08-03T05:01:31;100828.22;;;24.09;100.00
27294;BME280;14785;52.556;13.430;2022-08-03T05:03:56;100819.06;;;24.27;100.00
27294;BME280;14785;52.556;13.430;2022-08-03T05:06:22;100821.81;;;24.15;100.00
27294;BME280;14785;52.556;13.430;2022-08-03T05:08:47;100821.34;;;24.18;100.00
27294;BME280;14785;52.556;13.430;2022-08-03T05:11:14;100821.19;;;24.25;100.00
27294;BME280;14785;52.556;13.430;2022-08-03T05:13:40;100824.69;;;24.37;100.00
27294;BME280;14785;52.556;13.430;2022-08-03T05:16:05;100826.13;;;24.28;100.00
27294;BME280;14785;52.556;13.430;2022-08-03T05:18:31;100821.41;;;24.35;100.00
27294;BME280;14785;52.556;13.430;2022-08-03T05:20:56;100827.22;;;24.55;100.00
27294;BME280;14785;52.556;13.430;2022-08-03T05:23:21;100830.38;;;24.64;100.00
27294;BME280;14785;52.556;13.430;2022-08-03T05:25:47;100823.72;;;24.43;100.00
27294;BME280;14785;52.556;13.430;2022-08-03T05:28:12;100831.00;;;24.54;100.00
27294;BME280;14785;52.556;13.430;2022-08-03T05:30:37;100834.78;;;24.65;100.00
27294;BME280;14785;52.556;13.430;2022-08-03T05:33:03;100830.59;;;24.74;100.00
27294;BME280;14785;52.556;13.430;2022-08-03T05:35:29;100831.84;;;24.83;100.00
27294;BME280;14785;52.556;13.430;2022-08-03T05:37:54;100832.44;;;25.01;100.00
27294;BME280;14785;52.556;13.430;2022-08-03T05:40:20;100834.09;;;25.02;100.00
27294;BME280;14785;52.556;13.430;2022-08-03T05:42:45;100837.06;;;25.17;100.00
27294;BME280;14785;52.556;13.430;2022-08-03T05:45:11;100838.38;;;25.31;100.00
27294;BME280;14785;52.556;13.430;2022-08-03T05:47:40;100837.00;;;25.45;100.00
27294;BME280;14785;52.556;13.430;2022-08-03T05:50:06;100840.72;;;25.56;100.00
27294;BME280;14785;52.556;13.430;2022-08-03T05:52:31;100831.41;;;25.73;100.00
27294;BME280;14785;52.556;13.430;2022-08-03T05:54:57;100830.66;;;25.78;100.00
27294;BME280;14785;52.556;13.430;2022-08-03T05:57:22;100841.72;;;25.71;100.00
27294;BME280;14785;52.556;13.430;2022-08-03T05:59:47;100847.56;;;25.96;100.00
27294;BME280;14785;52.556;13.430;2022-08-03T06:02:13;100841.28;;;25.96;100.00
27294;BME280;14785;52.556;13.430;2022-08-03T06:04:38;100844.41;;;26.04;99.76
27294;BME280;14785;52.556;13.430;2022-08-03T06:07:03;100839.53;;;26.28;100.00
27294;BME280;14785;52.556;13.430;2022-08-03T06:09:29;100843.25;;;26.44;100.00
27294;BME280;14785;52.556;13.430;2022-08-03T06:11:54;100850.25;;;26.35;100.00
27294;BME280;14785;52.556;13.430;2022-08-03T06:14:19;100850.63;;;26.22;100.00
27294;BME280;14785;52.556;13.430;2022-08-03T06:16:45;100843.41;;;26.10;100.00
27294;BME280;14785;52.556;13.430;2022-08-03T06:19:10;100843.91;;;26.07;97.42
27294;BME280;14785;52.556;13.430;2022-08-03T06:21:36;100841.94;;;26.25;99.72
27294;BME280;14785;52.556;13.430;2022-08-03T06:24:01;100839.34;;;26.35;97.54
27294;BME280;14785;52.556;13.430;2022-08-03T06:26:26;100839.34;;;26.35;94.68
27294;BME280;14785;52.556;13.430;2022-08-03T06:28:53;100836.69;;;26.40;97.36
27294;BME280;14785;52.556;13.430;2022-08-03T06:31:19;100845.44;;;26.42;94.81
27294;BME280;14785;52.556;13.430;2022-08-03T06:33:44;100844.09;;;26.44;93.69
27294;BME280;14785;52.556;13.430;2022-08-03T06:36:10;100842.81;;;26.52;93.40
27294;BME280;14785;52.556;13.430;2022-08-03T06:38:35;100847.97;;;26.75;94.15
27294;BME280;14785;52.556;13.430;2022-08-03T06:41:00;100847.34;;;26.63;92.17
27294;BME280;14785;52.556;13.430;2022-08-03T06:43:26;100856.56;;;26.62;93.50
27294;BME280;14785;52.556;13.430;2022-08-03T06:45:51;100845.63;;;26.83;92.75
27294;BME280;14785;52.556;13.430;2022-08-03T06:48:16;100851.22;;;26.72;97.31
27294;BME280;14785;52.556;13.430;2022-08-03T06:50:42;100851.03;;;26.78;96.19
27294;BME280;14785;52.556;13.430;2022-08-03T06:53:08;100843.19;;;26.87;93.09
27294;BME280;14785;52.556;13.430;2022-08-03T06:55:34;100843.47;;;27.17;94.83
27294;BME280;14785;52.556;13.430;2022-08-03T06:58:00;100850.88;;;26.90;96.66
27294;BME280;14785;52.556;13.430;2022-08-03T07:00:26;100852.28;;;26.92;95.64
27294;BME280;14785;52.556;13.430;2022-08-03T07:02:52;100845.47;;;26.95;93.58
27294;BME280;14785;52.556;13.430;2022-08-03T07:05:17;100844.44;;;27.01;92.81
27294;BME280;14785;52.556;13.430;2022-08-03T07:07:43;100851.72;;;27.22;93.87
27294;BME280;14785;52.556;13.430;2022-08-03T07:10:09;100842.56;;;27.38;94.53
27294;BME280;14785;52.556;13.430;2022-08-03T07:12:38;100842.16;;;27.56;91.41
27294;BME280;14785;52.556;13.430;2022-08-03T07:15:05;100842.06;;;27.41;93.53
27294;BME280;14785;52.556;13.430;2022-08-03T07:17:32;100833.41;;;27.54;91.95
27294;BME280;14785;52.556;13.430;2022-08-03T07:19:58;100845.16;;;27.91;90.63
27294;BME280;14785;52.556;13.430;2022-08-03T07:22:24;100846.56;;;27.62;91.68
27294;BME280;14785;52.556;13.430;2022-08-03T07:24:49;100843.56;;;27.58;92.08
27294;BME280;14785;52.556;13.430;2022-08-03T07:27:15;100850.25;;;27.41;89.86
27294;BME280;14785;52.556;13.430;2022-08-03T07:29:40;100837.06;;;27.69;90.63
27294;BME280;14785;52.556;13.430;2022-08-03T07:32:06;100840.53;;;27.55;92.09
27294;BME280;14785;52.556;13.430;2022-08-03T07:34:31;100843.81;;;27.57;92.55
27294;BME280;14785;52.556;13.430;2022-08-03T07:36:57;100847.47;;;27.72;90.96
27294;BME280;14785;52.556;13.430;2022-08-03T07:39:22;100850.22;;;27.77;90.77
27294;BME280;14785;52.556;13.430;2022-08-03T07:41:48;100842.69;;;27.90;90.70
27294;BME280;14785;52.556;13.430;2022-08-03T07:44:16;100851.50;;;28.02;88.70
27294;BME280;14785;52.556;13.430;2022-08-03T07:46:41;100841.09;;;27.99;90.32
27294;BME280;14785;52.556;13.430;2022-08-03T07:49:06;100840.56;;;28.07;88.64
27294;BME280;14785;52.556;13.430;2022-08-03T07:51:32;100844.19;;;28.22;89.36
27294;BME280;14785;52.556;13.430;2022-08-03T07:53:57;100850.41;;;28.69;87.29
27294;BME280;14785;52.556;13.430;2022-08-03T07:56:23;100851.78;;;28.82;86.83
27294;BME280;14785;52.556;13.430;2022-08-03T07:58:52;100847.59;;;28.49;87.48
27294;BME280;14785;52.556;13.430;2022-08-03T08:01:18;100848.31;;;28.20;85.91
27294;BME280;14785;52.556;13.430;2022-08-03T08:03:44;100848.97;;;28.47;88.19
27294;BME280;14785;52.556;13.430;2022-08-03T08:06:10;100851.44;;;28.48;87.75
27294;BME280;14785;52.556;13.430;2022-08-03T08:08:37;100848.63;;;28.33;85.74
27294;BME280;14785;52.556;13.430;2022-08-03T08:11:02;100846.59;;;28.85;83.55
27294;BME280;14785;52.556;13.430;2022-08-03T08:13:27;100842.72;;;28.61;85.67
27294;BME280;14785;52.556;13.430;2022-08-03T08:15:54;100851.53;;;28.88;86.63
27294;BME280;14785;52.556;13.430;2022-08-03T08:18:20;100851.78;;;28.82;87.64
27294;BME280;14785;52.556;13.430;2022-08-03T08:20:45;100847.34;;;28.61;82.63
27294;BME280;14785;52.556;13.430;2022-08-03T08:23:11;100853.41;;;28.83;81.60
27294;BME280;14785;52.556;13.430;2022-08-03T08:25:36;100848.81;;;29.03;82.78
27294;BME280;14785;52.556;13.430;2022-08-03T08:28:02;100847.06;;;28.52;83.34
27294;BME280;14785;52.556;13.430;2022-08-03T08:30:30;100851.97;;;28.50;86.01
27294;BME280;14785;52.556;13.430;2022-08-03T08:32:55;100855.00;;;28.54;83.55
27294;BME280;14785;52.556;13.430;2022-08-03T08:35:22;100853.72;;;28.86;80.13
27294;BME280;14785;52.556;13.430;2022-08-03T08:37:47;100855.97;;;29.34;81.47
27294;BME280;14785;52.556;13.430;2022-08-03T08:40:13;100851.59;;;29.18;79.67
27294;BME280;14785;52.556;13.430;2022-08-03T08:42:40;100845.50;;;28.91;82.15
27294;BME280;14785;52.556;13.430;2022-08-03T08:45:06;100844.97;;;28.94;82.77
27294;BME280;14785;52.556;13.430;2022-08-03T08:47:37;100847.69;;;28.99;78.79
27294;BME280;14785;52.556;13.430;2022-08-03T08:50:05;100845.81;;;29.15;78.21
27294;BME280;14785;52.556;13.430;2022-08-03T08:52:32;100854.56;;;29.37;76.58
27294;BME280;14785;52.556;13.430;2022-08-03T08:55:04;100841.13;;;29.55;75.96
27294;BME280;14785;52.556;13.430;2022-08-03T08:57:35;100838.13;;;29.67;75.54
27294;BME280;14785;52.556;13.430;2022-08-03T09:00:04;100843.09;;;29.65;74.45
27294;BME280;14785;52.556;13.430;2022-08-03T09:02:30;100843.31;;;29.53;75.01
27294;BME280;14785;52.556;13.430;2022-08-03T09:04:56;100849.94;;;29.37;73.27
27294;BME280;14785;52.556;13.430;2022-08-03T09:07:22;100840.03;;;29.61;74.32
27294;BME280;14785;52.556;13.430;2022-08-03T09:09:48;100845.00;;;29.65;78.19
27294;BME280;14785;52.556;13.430;2022-08-03T09:12:14;100851.00;;;29.61;74.27
27294;BME280;14785;52.556;13.430;2022-08-03T09:14:39;100848.25;;;29.77;73.27
27294;BME280;14785;52.556;13.430;2022-08-03T09:17:05;100842.53;;;29.63;74.10
27294;BME280;14785;52.556;13.430;2022-08-03T09:19:33;100839.22;;;29.51;77.08
27294;BME280;14785;52.556;13.430;2022-08-03T09:22:09;100829.00;;;29.92;73.12
27294;BME280;14785;52.556;13.430;2022-08-03T09:24:36;100832.63;;;29.77;74.83
27294;BME280;14785;52.556;13.430;2022-08-03T09:27:05;100828.97;;;30.07;76.14
27294;BME280;14785;52.556;13.430;2022-08-03T09:29:32;100830.00;;;30.21;75.23
27294;BME280;14785;52.556;13.430;2022-08-03T09:32:01;100823.78;;;30.59;72.43
27294;BME280;14785;52.556;13.430;2022-08-03T09:34:26;100825.00;;;30.33;76.40
27294;BME280;14785;52.556;13.430;2022-08-03T09:36:55;100827.53;;;30.24;76.35
27294;BME280;14785;52.556;13.430;2022-08-03T09:39:24;100838.25;;;30.21;74.11
27294;BME280;14785;52.556;13.430;2022-08-03T09:44:38;100833.13;;;30.58;71.95
27294;BME280;14785;52.556;13.430;2022-08-03T09:47:06;100826.47;;;30.74;68.54
27294;BME280;14785;52.556;13.430;2022-08-03T09:49:32;100829.91;;;30.46;70.90
27294;BME280;14785;52.556;13.430;2022-08-03T09:52:11;100834.25;;;30.52;71.32
27294;BME280;14785;52.556;13.430;2022-08-03T09:54:37;100833.25;;;30.33;71.62
27294;BME280;14785;52.556;13.430;2022-08-03T09:57:03;100824.00;;;30.09;72.34
27294;BME280;14785;52.556;13.430;2022-08-03T09:59:31;100831.81;;;30.50;75.24
27294;BME280;14785;52.556;13.430;2022-08-03T10:01:58;100817.44;;;31.02;69.70
27294;BME280;14785;52.556;13.430;2022-08-03T10:04:26;100819.94;;;31.37;67.19
27294;BME280;14785;52.556;13.430;2022-08-03T10:07:03;100823.06;;;30.87;72.05
27294;BME280;14785;52.556;13.430;2022-08-03T10:09:28;100820.06;;;30.83;70.17
27294;BME280;14785;52.556;13.430;2022-08-03T10:11:54;100825.09;;;30.66;68.26
27294;BME280;14785;52.556;13.430;2022-08-03T10:14:19;100818.69;;;30.86;66.75
27294;BME280;14785;52.556;13.430;2022-08-03T10:16:47;100814.13;;;30.66;69.58
27294;BME280;14785;52.556;13.430;2022-08-03T10:19:12;100817.56;;;30.87;67.84
27294;BME280;14785;52.556;13.430;2022-08-03T10:21:41;100801.72;;;30.69;74.17
27294;BME280;14785;52.556;13.430;2022-08-03T10:24:11;100817.22;;;31.27;67.59
27294;BME280;14785;52.556;13.430;2022-08-03T10:26:40;100810.81;;;31.94;64.03
27294;BME280;14785;52.556;13.430;2022-08-03T10:29:11;100808.91;;;32.55;62.46
27294;BME280;14785;52.556;13.430;2022-08-03T10:31:43;100810.75;;;33.15;58.25
27294;BME280;14785;52.556;13.430;2022-08-03T10:34:23;100803.38;;;33.56;54.54
27294;BME280;14785;52.556;13.430;2022-08-03T10:36:51;100800.13;;;33.54;57.28
27294;BME280;14785;52.556;13.430;2022-08-03T10:39:22;100792.78;;;33.63;61.54
27294;BME280;14785;52.556;13.430;2022-08-03T10:41:49;100786.16;;;33.91;57.26
27294;BME280;14785;52.556;13.430;2022-08-03T10:44:18;100794.84;;;34.12;50.36
27294;BME280;14785;52.556;13.430;2022-08-03T10:46:45;100793.19;;;34.38;57.80
27294;BME280;14785;52.556;13.430;2022-08-03T10:49:15;100791.28;;;35.27;51.15
27294;BME280;14785;52.556;13.430;2022-08-03T10:51:43;100790.38;;;35.62;46.64
27294;BME280;14785;52.556;13.430;2022-08-03T10:56:56;100786.72;;;34.78;52.96
27294;BME280;14785;52.556;13.430;2022-08-03T11:02:13;100796.53;;;35.89;47.23
27294;BME280;14785;52.556;13.430;2022-08-03T11:04:39;100781.50;;;36.29;43.05
27294;BME280;14785;52.556;13.430;2022-08-03T11:07:25;100788.41;;;32.98;49.56
27294;BME280;14785;52.556;13.430;2022-08-03T11:09:54;100780.13;;;34.52;49.05
27294;BME280;14785;52.556;13.430;2022-08-03T11:12:26;100783.56;;;35.76;41.69
27294;BME280;14785;52.556;13.430;2022-08-03T11:14:54;100783.97;;;36.57;42.74
27294;BME280;14785;52.556;13.430;2022-08-03T11:17:21;100786.34;;;37.35;40.95
27294;BME280;14785;52.556;13.430;2022-08-03T11:19:48;100777.22;;;37.34;36.39
27294;BME280;14785;52.556;13.430;2022-08-03T11:22:14;100774.94;;;37.82;37.70
27294;BME280;14785;52.556;13.430;2022-08-03T11:48:38;100769.59;;;37.98;41.66
27294;BME280;14785;52.556;13.430;2022-08-03T11:51:06;100772.69;;;37.59;42.11
27294;BME280;14785;52.556;13.430;2022-08-03T11:53:32;100766.13;;;37.26;40.72
27294;BME280;14785;52.556;13.430;2022-08-03T11:56:00;100773.56;;;37.42;39.84
27294;BME280;14785;52.556;13.430;2022-08-03T11:58:26;100758.41;;;38.36;38.29
27294;BME280;14785;52.556;13.430;2022-08-03T12:00:52;100761.84;;;39.27;34.29
27294;BME280;14785;52.556;13.430;2022-08-03T12:03:18;100765.84;;;38.23;37.06
27294;BME280;14785;52.556;13.430;2022-08-03T12:08:16;100768.19;;;38.62;39.29
27294;BME280;14785;52.556;13.430;2022-08-03T12:10:49;100765.63;;;37.32;32.88
27294;BME280;14785;52.556;13.430;2022-08-03T12:13:15;100760.56;;;37.17;36.77
27294;BME280;14785;52.556;13.430;2022-08-03T12:15:41;100755.41;;;35.35;38.06
27294;BME280;14785;52.556;13.430;2022-08-03T12:18:15;100755.91;;;35.15;45.40
27294;BME280;14785;52.556;13.430;2022-08-03T12:20:41;100759.28;;;37.15;47.31
27294;BME280;14785;52.556;13.430;2022-08-03T12:23:07;100757.19;;;38.45;42.65
27294;BME280;14785;52.556;13.430;2022-08-03T12:25:34;100758.06;;;39.55;37.12
27294;BME280;14785;52.556;13.430;2022-08-03T12:28:08;100757.06;;;36.74;33.57
27294;BME280;14785;52.556;13.430;2022-08-03T12:30:34;100743.34;;;35.70;38.63
27294;BME280;14785;52.556;13.430;2022-08-03T12:33:11;100746.94;;;37.50;41.26
27294;BME280;14785;52.556;13.430;2022-08-03T12:35:37;100743.06;;;38.50;42.79
27294;BME280;14785;52.556;13.430;2022-08-03T12:38:02;100745.47;;;39.25;39.42
27294;BME280;14785;52.556;13.430;2022-08-03T12:40:28;100743.66;;;39.53;29.69
27294;BME280;14785;52.556;13.430;2022-08-03T12:42:53;100737.16;;;38.60;34.25
27294;BME280;14785;52.556;13.430;2022-08-03T12:45:24;100736.44;;;38.22;32.15
27294;BME280;14785;52.556;13.430;2022-08-03T12:48:00;100734.88;;;35.75;37.67
27294;BME280;14785;52.556;13.430;2022-08-03T12:50:28;100730.03;;;34.67;42.85
27294;BME280;14785;52.556;13.430;2022-08-03T12:52:54;100719.69;;;35.25;42.79
27294;BME280;14785;52.556;13.430;2022-08-03T12:55:21;100717.25;;;35.54;40.44
27294;BME280;14785;52.556;13.430;2022-08-03T12:57:47;100718.41;;;35.70;44.60
27294;BME280;14785;52.556;13.430;2022-08-03T13:00:14;100729.78;;;35.52;40.78
27294;BME280;14785;52.556;13.430;2022-08-03T13:02:41;100726.72;;;34.78;43.94
27294;BME280;14785;52.556;13.430;2022-08-03T13:05:13;100714.59;;;35.97;44.13
27294;BME280;14785;52.556;13.430;2022-08-03T13:07:40;100706.31;;;33.81;48.83
27294;BME280;14785;52.556;13.430;2022-08-03T13:10:06;100704.81;;;35.82;46.56
27294;BME280;14785;52.556;13.430;2022-08-03T13:12:32;100712.53;;;35.24;46.20
27294;BME280;14785;52.556;13.430;2022-08-03T13:14:58;100706.16;;;34.49;45.41
27294;BME280;14785;52.556;13.430;2022-08-03T13:17:24;100715.91;;;34.11;47.34
27294;BME280;14785;52.556;13.430;2022-08-03T13:19:50;100719.47;;;36.00;42.52